Time;durP1;ratioP1;P1;durP2;ratioP2;P2;SDS_P1;SDS_P2;PMS_P1;PMS_P2;Temp;Humidity;BMP_temperature;BMP_pressure;BME280_temperature;BME280_humidity;BME280_pressure;Samples;Min_cycle;Max_cycle;Signal;HPM_P1;HPM_P2
2023/01/10 00:01:39;;;;;;;13.30;4.93;;;7.00;59.40;;;;;;4959972;28;20254;-85
2023/01/10 00:04:08;;;;;;;14.33;5.37;;;7.00;59.70;;;;;;4974512;28;20176;-84
2023/01/10 00:06:45;;;;;;;14.67;5.17;;;7.00;58.20;;;;;;4973851;28;20195;-84
2023/01/10 00:09:11;;;;;;;14.03;5.10;;;7.10;57.80;;;;;;4956529;28;20182;-84
2023/01/10 00:14:21;;;;;;;11.80;5.00;;;7.00;60.90;;;;;;4971155;28;20248;-85
2023/01/10 00:16:47;;;;;;;13.13;5.23;;;7.00;61.40;;;;;;4974719;28;21025;-86
2023/01/10 00:19:15;;;;;;;15.30;4.93;;;7.10;60.70;;;;;;4972209;28;20675;-86
2023/01/10 00:21:41;;;;;;;13.57;4.70;;;7.10;59.50;;;;;;4972528;28;20588;-85
2023/01/10 00:24:20;;;;;;;10.57;4.83;;;7.00;59.50;;;;;;4972140;28;20184;-85
2023/01/10 00:26:49;;;;;;;17.17;5.03;;;7.00;59.70;;;;;;4973196;28;20199;-84
2023/01/10 00:29:20;;;;;;;15.20;4.50;;;7.10;63.50;;;;;;4993352;28;20164;-85
2023/01/10 00:31:47;;;;;;;12.97;4.30;;;7.00;65.10;;;;;;4981723;28;20207;-85
2023/01/10 00:34:13;;;;;;;16.23;4.27;;;7.00;63.50;;;;;;4973839;28;20181;-85
2023/01/10 00:36:40;;;;;;;12.50;4.03;;;7.00;65.50;;;;;;4973566;28;20187;-85
2023/01/10 00:39:08;;;;;;;10.97;3.87;;;7.10;63.20;;;;;;4960475;28;20188;-83
2023/01/10 00:44:20;;;;;;;13.60;3.70;;;7.00;66.90;;;;;;4979388;28;20187;-84
2023/01/10 00:50:10;;;;;;;11.80;3.97;;;7.00;69.40;;;;;;4960511;29;20187;-84
2023/01/10 00:52:36;;;;;;;14.97;4.07;;;7.00;69.70;;;;;;4972598;28;20211;-84
2023/01/10 00:55:02;;;;;;;10.93;3.70;;;7.10;68.70;;;;;;4955871;28;20641;-86
2023/01/10 00:57:28;;;;;;;15.10;3.93;;;7.20;65.90;;;;;;4979246;28;20227;-83
2023/01/10 00:59:54;;;;;;;15.53;4.10;;;7.30;63.90;;;;;;4969949;28;20232;-86
2023/01/10 01:02:19;;;;;;;13.53;3.77;;;7.50;59.80;;;;;;4957482;28;20211;-85
2023/01/10 01:04:45;;;;;;;10.90;3.97;;;7.40;59.90;;;;;;4970905;28;20239;-87
2023/01/10 01:07:11;;;;;;;10.20;3.80;;;7.30;62.50;;;;;;4970020;28;20176;-86
2023/01/10 01:10:25;;;;;;;19.23;3.90;;;7.20;64.10;;;;;;4954425;28;20180;-84
2023/01/10 01:12:22;;;;;;;12.90;3.60;;;7.20;64.40;;;;;;4972194;28;20268;-86
2023/01/10 01:14:49;;;;;;;12.07;4.17;;;7.10;66.70;;;;;;4984451;28;20176;-84
2023/01/10 01:17:19;;;;;;;13.17;3.50;;;7.10;70.70;;;;;;4960327;28;20208;-86
2023/01/10 01:19:45;;;;;;;18.80;4.00;;;7.00;70.30;;;;;;4972566;28;20256;-87
2023/01/10 01:22:11;;;;;;;8.70;3.13;;;7.20;68.90;;;;;;4956081;28;20257;-85
2023/01/10 01:24:38;;;;;;;13.63;3.70;;;7.00;69.10;;;;;;4973025;28;20704;-85
2023/01/10 01:27:03;;;;;;;13.20;3.77;;;7.00;70.20;;;;;;4974891;28;20539;-85
2023/01/10 01:29:29;;;;;;;14.50;4.47;;;7.00;71.80;;;;;;4974227;28;20184;-85
2023/01/10 01:31:56;;;;;;;19.43;4.33;;;7.20;71.50;;;;;;4974247;28;20637;-84
2023/01/10 01:34:21;;;;;;;17.87;4.73;;;7.10;68.30;;;;;;4958772;28;20173;-85
2023/01/10 01:36:47;;;;;;;17.03;4.30;;;7.10;72.00;;;;;;4973394;28;20238;-83
2023/01/10 01:39:13;;;;;;;17.47;3.93;;;6.90;74.70;;;;;;4973248;28;20274;-83
2023/01/10 01:41:56;;;;;;;18.83;3.83;;;7.00;74.90;;;;;;4974649;28;20203;-84
2023/01/10 01:44:23;;;;;;;14.13;3.87;;;7.00;73.00;;;;;;4959542;28;20200;-85
2023/01/10 01:46:56;;;;;;;12.93;3.43;;;7.00;74.60;;;;;;4973737;28;20653;-85
2023/01/10 01:49:23;;;;;;;11.27;3.80;;;6.80;75.00;;;;;;4957396;28;20168;-86
2023/01/10 01:51:53;;;;;;;11.43;3.27;;;6.80;76.40;;;;;;4959113;28;20180;-85
2023/01/10 01:54:19;;;;;;;11.30;3.83;;;6.80;77.80;;;;;;4973835;28;20176;-84
2023/01/10 01:57:12;;;;;;;13.20;3.57;;;6.90;74.00;;;;;;4973919;28;20187;-85
2023/01/10 01:59:42;;;;;;;14.43;3.67;;;6.90;73.30;;;;;;4973359;28;20195;-85
2023/01/10 02:02:14;;;;;;;16.10;4.30;;;7.00;68.10;;;;;;4957550;28;20200;-84
2023/01/10 02:05:06;;;;;;;11.60;3.60;;;7.10;64.90;;;;;;4973677;28;20647;-85
2023/01/10 02:07:36;;;;;;;13.00;3.70;;;7.00;65.20;;;;;;4960491;28;20165;-85
2023/01/10 02:10:10;;;;;;;14.23;3.47;;;6.80;66.20;;;;;;4976275;28;20259;-85
2023/01/10 02:12:36;;;;;;;12.47;3.10;;;6.70;70.60;;;;;;4963303;28;20632;-84
2023/01/10 02:15:02;;;;;;;9.50;2.97;;;6.60;73.10;;;;;;4960932;28;20251;-85
2023/01/10 02:17:28;;;;;;;14.23;3.67;;;6.60;75.40;;;;;;4974487;28;20262;-86
2023/01/10 02:20:00;;;;;;;13.47;3.40;;;6.60;75.30;;;;;;4973956;28;20176;-85
2023/01/10 02:22:54;;;;;;;13.83;3.50;;;6.60;74.10;;;;;;4973771;28;20172;-85
2023/01/10 02:25:50;;;;;;;12.10;3.63;;;6.60;76.30;;;;;;4960208;28;20183;-85
2023/01/10 02:28:22;;;;;;;18.20;4.47;;;6.50;77.60;;;;;;4957941;28;20204;-84
2023/01/10 02:31:25;;;;;;;12.23;3.47;;;6.50;79.90;;;;;;4979669;28;20191;-85
2023/01/10 02:34:19;;;;;;;14.87;3.70;;;6.50;79.40;;;;;;4960609;28;20184;-86
2023/01/10 02:37:18;;;;;;;16.73;4.33;;;6.40;79.80;;;;;;4973313;28;20255;-85
2023/01/10 02:40:00;;;;;;;12.70;4.30;;;6.50;82.30;;;;;;4956784;28;20180;-85
2023/01/10 02:43:05;;;;;;;17.03;4.33;;;6.50;81.20;;;;;;4984966;28;20206;-85
2023/01/10 02:45:46;;;;;;;16.30;3.77;;;6.60;78.90;;;;;;4970811;28;20219;-84
2023/01/10 02:48:11;;;;;;;15.13;3.90;;;6.50;76.50;;;;;;4978839;28;20176;-82
2023/01/10 02:54:29;;;;;;;13.17;3.57;;;6.30;81.90;;;;;;4980648;28;20167;-85
2023/01/10 02:57:03;;;;;;;14.77;4.47;;;6.30;87.70;;;;;;4980885;28;20186;-85
2023/01/10 02:59:50;;;;;;;14.20;4.00;;;6.30;89.00;;;;;;4978414;28;20184;-85
2023/01/10 03:02:44;;;;;;;12.40;3.97;;;6.20;87.50;;;;;;4996578;28;20164;-84
2023/01/10 03:05:24;;;;;;;15.40;4.10;;;6.30;88.10;;;;;;4974753;28;20183;-85
2023/01/10 03:07:59;;;;;;;17.57;3.63;;;6.20;87.80;;;;;;4967549;28;20172;-86
2023/01/10 03:10:31;;;;;;;18.67;4.70;;;6.20;87.80;;;;;;4983824;28;20211;-85
2023/01/10 03:13:20;;;;;;;15.80;4.13;;;6.10;88.60;;;;;;4985068;28;20179;-86
2023/01/10 03:19:24;;;;;;;17.37;4.07;;;6.10;90.90;;;;;;4958140;29;20186;-85
2023/01/10 03:21:56;;;;;;;16.97;3.73;;;6.30;91.80;;;;;;4973324;28;20184;-85
2023/01/10 03:24:35;;;;;;;18.23;4.33;;;6.40;91.10;;;;;;4975370;28;20196;-85
2023/01/10 03:27:10;;;;;;;19.93;4.67;;;6.20;90.20;;;;;;4988056;28;20552;-85
2023/01/10 03:29:45;;;;;;;17.43;4.47;;;6.30;90.90;;;;;;4979427;28;20309;-85
2023/01/10 03:32:14;;;;;;;16.93;4.70;;;6.20;91.10;;;;;;4978382;28;20179;-85
2023/01/10 03:34:40;;;;;;;20.83;5.27;;;6.20;92.40;;;;;;4959119;28;20667;-85
2023/01/10 03:37:20;;;;;;;19.30;4.57;;;6.30;92.20;;;;;;4971769;28;20215;-85
2023/01/10 03:40:04;;;;;;;20.03;4.47;;;6.30;92.10;;;;;;4971687;28;20187;-85
2023/01/10 03:45:53;;;;;;;17.73;4.53;;;6.10;92.00;;;;;;4958493;28;20227;-85
2023/01/10 03:48:22;;;;;;;18.50;4.33;;;6.10;91.90;;;;;;4974328;28;20222;-86
2023/01/10 03:50:50;;;;;;;17.97;4.67;;;6.00;92.80;;;;;;4975556;28;20279;-85
2023/01/10 03:53:16;;;;;;;17.87;4.50;;;6.00;93.10;;;;;;4975864;28;20587;-86
2023/01/10 03:55:44;;;;;;;15.10;4.90;;;6.00;94.10;;;;;;4976104;28;20183;-84
2023/01/10 03:58:09;;;;;;;16.60;4.10;;;5.90;94.20;;;;;;4974533;28;20218;-86
2023/01/10 04:00:35;;;;;;;21.00;4.77;;;5.90;94.70;;;;;;4974506;28;20219;-86
2023/01/10 04:03:01;;;;;;;17.37;4.07;;;5.80;94.70;;;;;;4974239;28;20191;-85
2023/01/10 04:05:26;;;;;;;21.57;4.53;;;5.80;94.60;;;;;;4973944;28;20183;-85
2023/01/10 04:07:52;;;;;;;18.07;4.57;;;5.90;95.20;;;;;;4974386;28;20175;-85
2023/01/10 04:10:19;;;;;;;15.40;4.07;;;5.80;95.60;;;;;;4973753;28;20257;-85
2023/01/10 04:12:45;;;;;;;17.90;4.10;;;5.80;95.60;;;;;;4974034;28;20171;-85
2023/01/10 04:15:12;;;;;;;17.10;4.00;;;5.80;96.00;;;;;;4974558;28;20256;-85
2023/01/10 04:17:38;;;;;;;17.60;4.63;;;5.80;96.30;;;;;;4973691;28;20219;-85
2023/01/10 04:20:05;;;;;;;17.77;3.77;;;5.90;95.70;;;;;;4973650;28;20172;-86
2023/01/10 04:22:30;;;;;;;15.73;3.83;;;5.80;94.70;;;;;;4974047;28;20175;-86
2023/01/10 04:24:56;;;;;;;12.80;4.33;;;5.80;94.90;;;;;;4975321;28;20230;-83
2023/01/10 04:27:23;;;;;;;16.67;3.70;;;5.80;94.90;;;;;;4975847;28;20175;-85
2023/01/10 04:29:48;;;;;;;20.00;4.73;;;5.80;94.90;;;;;;4992954;28;20184;-84
2023/01/10 04:32:15;;;;;;;18.13;5.07;;;5.80;95.30;;;;;;4977973;28;20187;-85
2023/01/10 04:34:42;;;;;;;16.83;4.30;;;5.80;95.40;;;;;;4974357;28;20172;-85
2023/01/10 04:37:07;;;;;;;12.17;4.40;;;5.80;95.70;;;;;;4973589;28;20196;-85
2023/01/10 04:39:33;;;;;;;14.30;3.47;;;5.80;94.90;;;;;;4974464;28;20180;-84
2023/01/10 04:42:00;;;;;;;28.73;4.77;;;5.80;94.80;;;;;;4973572;28;20192;-85
2023/01/10 04:44:25;;;;;;;11.90;3.67;;;5.70;95.20;;;;;;4974174;28;20175;-85
2023/01/10 04:46:51;;;;;;;20.33;5.33;;;5.70;95.90;;;;;;4991392;28;20176;-85
2023/01/10 04:49:16;;;;;;;20.53;4.43;;;5.60;97.10;;;;;;4983960;28;20652;-85
2023/01/10 04:51:45;;;;;;;16.43;4.50;;;5.60;98.00;;;;;;4975780;28;20263;-85
2023/01/10 04:54:11;;;;;;;14.90;3.87;;;5.60;98.70;;;;;;4974968;28;20168;-85
2023/01/10 04:56:36;;;;;;;15.70;3.77;;;5.60;98.90;;;;;;4974766;28;20194;-86
2023/01/10 04:59:05;;;;;;;18.33;4.93;;;5.50;99.40;;;;;;4973992;28;20214;-85
2023/01/10 05:01:31;;;;;;;18.37;4.47;;;5.60;99.90;;;;;;4984520;28;20207;-84
2023/01/10 05:03:57;;;;;;;26.30;4.70;;;5.60;99.90;;;;;;5002211;28;20163;-84
2023/01/10 05:06:23;;;;;;;20.53;5.00;;;5.50;99.90;;;;;;4983325;28;20184;-84
2023/01/10 05:09:33;;;;;;;18.80;4.93;;;5.50;99.90;;;;;;4979542;28;20604;-85
2023/01/10 05:11:59;;;;;;;19.20;5.00;;;5.60;99.90;;;;;;4978778;28;20179;-84
2023/01/10 05:14:24;;;;;;;14.87;4.23;;;5.60;99.40;;;;;;4978160;28;20176;-84
2023/01/10 05:16:50;;;;;;;20.50;4.83;;;5.90;99.20;;;;;;4981553;28;20180;-84
2023/01/10 05:19:16;;;;;;;20.00;4.47;;;5.80;98.30;;;;;;4982623;28;20594;-83
2023/01/10 05:21:41;;;;;;;18.33;4.77;;;5.70;97.90;;;;;;4984432;28;20230;-85
2023/01/10 05:24:08;;;;;;;20.17;4.30;;;5.80;98.00;;;;;;4981931;28;20176;-86
2023/01/10 05:26:34;;;;;;;17.67;4.50;;;5.60;97.90;;;;;;4978349;28;20640;-85
2023/01/10 05:28:59;;;;;;;17.37;4.30;;;5.70;98.40;;;;;;4978069;28;20182;-85
2023/01/10 05:31:25;;;;;;;18.83;4.93;;;5.70;98.30;;;;;;4977388;28;20186;-85
2023/01/10 05:33:51;;;;;;;18.10;5.03;;;5.70;97.90;;;;;;4977414;28;20171;-85
2023/01/10 05:36:17;;;;;;;12.40;4.17;;;5.60;98.10;;;;;;4980605;28;20213;-84
2023/01/10 05:38:43;;;;;;;19.17;4.33;;;5.70;98.20;;;;;;4980454;28;20215;-86
2023/01/10 05:41:09;;;;;;;19.03;4.73;;;5.70;97.10;;;;;;4987613;28;20196;-84
2023/01/10 05:43:35;;;;;;;16.30;4.43;;;5.70;97.50;;;;;;5000149;28;20168;-82
2023/01/10 05:46:02;;;;;;;18.13;3.80;;;5.60;96.70;;;;;;4989694;28;20276;-85
2023/01/10 05:48:27;;;;;;;23.97;5.47;;;5.60;97.30;;;;;;4979381;28;20518;-85
2023/01/10 05:50:53;;;;;;;14.37;4.27;;;5.60;98.00;;;;;;4978105;28;20183;-84
2023/01/10 05:53:25;;;;;;;20.10;4.30;;;5.70;98.00;;;;;;4962702;28;20655;-85
2023/01/10 05:56:00;;;;;;;16.43;4.67;;;5.50;98.40;;;;;;4985527;28;20563;-83
2023/01/10 05:58:26;;;;;;;20.97;5.30;;;5.50;98.80;;;;;;4988861;28;20215;-86
2023/01/10 06:00:54;;;;;;;16.20;4.30;;;5.50;98.70;;;;;;4978291;28;20270;-85
2023/01/10 06:03:21;;;;;;;15.27;4.13;;;5.50;98.80;;;;;;4977565;28;20271;-84
2023/01/10 06:05:47;;;;;;;19.37;4.60;;;5.50;98.70;;;;;;4978794;28;20263;-85
2023/01/10 06:08:13;;;;;;;19.90;5.57;;;5.50;98.70;;;;;;4964131;28;20207;-84
2023/01/10 06:10:39;;;;;;;19.87;4.50;;;5.50;98.40;;;;;;4975231;28;20180;-85
2023/01/10 06:13:04;;;;;;;14.23;4.37;;;5.50;98.50;;;;;;4975203;28;20175;-85
2023/01/10 06:15:31;;;;;;;19.27;4.43;;;5.40;98.50;;;;;;4976046;28;20628;-85
2023/01/10 06:17:56;;;;;;;14.53;4.10;;;5.40;98.80;;;;;;4975811;28;20365;-84
2023/01/10 06:20:22;;;;;;;24.17;5.33;;;5.40;99.00;;;;;;4976482;28;20215;-85
2023/01/10 06:22:48;;;;;;;21.33;4.10;;;5.20;99.20;;;;;;4976823;28;20274;-84
2023/01/10 06:25:13;;;;;;;17.90;5.00;;;5.50;98.90;;;;;;4975954;28;20177;-84
2023/01/10 06:27:41;;;;;;;25.10;4.47;;;5.40;97.80;;;;;;4979751;28;20176;-86
2023/01/10 06:30:08;;;;;;;19.33;4.50;;;5.40;97.70;;;;;;4980366;28;20191;-84
2023/01/10 06:32:36;;;;;;;17.83;4.00;;;5.40;97.80;;;;;;4981901;28;20283;-84
2023/01/10 06:35:03;;;;;;;18.07;4.30;;;5.40;98.30;;;;;;4964317;28;20179;-84
2023/01/10 06:37:29;;;;;;;19.27;4.80;;;5.30;98.90;;;;;;4962998;28;20231;-86
2023/01/10 06:39:56;;;;;;;19.30;4.17;;;5.30;99.70;;;;;;4979497;28;20270;-87
2023/01/10 06:42:22;;;;;;;22.17;4.43;;;5.30;99.90;;;;;;4979857;28;20207;-83
2023/01/10 06:44:48;;;;;;;17.47;4.17;;;5.30;99.90;;;;;;4979522;28;20188;-84
2023/01/10 06:47:14;;;;;;;20.00;4.13;;;5.20;99.90;;;;;;4981659;28;20221;-87
2023/01/10 06:49:40;;;;;;;15.50;3.70;;;5.30;99.90;;;;;;4949840;28;20176;-86
2023/01/10 06:52:06;;;;;;;20.60;4.97;;;5.30;99.90;;;;;;4975971;28;20196;-85
2023/01/10 06:54:31;;;;;;;19.83;4.67;;;5.30;99.90;;;;;;4963129;28;20177;-85
2023/01/10 06:57:00;;;;;;;16.40;3.67;;;5.20;99.90;;;;;;4974705;28;20176;-88
2023/01/10 06:59:26;;;;;;;17.17;3.83;;;5.20;99.90;;;;;;4974665;28;20776;-86
2023/01/10 07:01:52;;;;;;;17.70;4.67;;;5.20;99.90;;;;;;4971603;28;20275;-85
2023/01/10 07:04:17;;;;;;;16.80;4.60;;;5.20;99.90;;;;;;4971662;28;20180;-88
2023/01/10 07:06:49;;;;;;;15.97;4.47;;;5.20;99.90;;;;;;4977098;28;20207;-86
2023/01/10 07:09:14;;;;;;;20.30;4.50;;;5.20;99.90;;;;;;4977682;28;20567;-85
2023/01/10 07:11:40;;;;;;;15.00;3.93;;;5.10;99.90;;;;;;4978394;28;20240;-90
2023/01/10 07:14:06;;;;;;;13.87;4.20;;;5.10;99.90;;;;;;4980679;28;20652;-88
2023/01/10 07:16:31;;;;;;;15.67;4.10;;;5.10;99.90;;;;;;4984985;28;20151;-87
2023/01/10 07:18:58;;;;;;;14.87;4.27;;;5.20;99.90;;;;;;4997606;28;20211;-85
2023/01/10 07:21:24;;;;;;;19.57;4.10;;;5.10;99.90;;;;;;4984666;28;20275;-85
2023/01/10 07:23:53;;;;;;;16.10;4.50;;;5.10;99.90;;;;;;4985754;28;20211;-87
2023/01/10 07:26:30;;;;;;;17.67;4.67;;;5.10;99.90;;;;;;4977800;28;20207;-84
2023/01/10 07:28:56;;;;;;;14.90;3.73;;;5.10;99.90;;;;;;4974961;28;20183;-84
2023/01/10 07:31:23;;;;;;;19.20;4.93;;;5.00;99.90;;;;;;4982285;28;20574;-86
2023/01/10 07:33:50;;;;;;;17.57;4.43;;;5.00;99.90;;;;;;4986214;28;20183;-85
2023/01/10 07:36:16;;;;;;;14.47;4.57;;;5.00;99.90;;;;;;4989650;28;20194;-87
2023/01/10 07:38:42;;;;;;;13.20;3.80;;;5.10;99.90;;;;;;4998722;28;20215;-86
2023/01/10 07:41:07;;;;;;;13.03;4.63;;;5.00;99.90;;;;;;5013549;28;20191;-85
2023/01/10 07:43:33;;;;;;;12.37;3.70;;;5.10;99.90;;;;;;4990871;28;20190;-85
2023/01/10 07:46:00;;;;;;;16.33;4.63;;;5.10;99.90;;;;;;4995493;28;20222;-85
2023/01/10 07:48:26;;;;;;;15.00;3.93;;;5.10;99.90;;;;;;4994032;28;20190;-84
2023/01/10 07:50:56;;;;;;;23.23;4.87;;;5.10;99.90;;;;;;4997248;28;20163;-83
2023/01/10 07:53:22;;;;;;;17.17;4.03;;;5.20;99.90;;;;;;4990350;28;20320;-83
2023/01/10 07:56:20;;;;;;;16.07;4.53;;;5.20;99.90;;;;;;4987842;28;20176;-85
2023/01/10 07:58:49;;;;;;;13.33;3.93;;;5.10;99.90;;;;;;4980234;28;20195;-84
2023/01/10 08:01:14;;;;;;;16.23;4.50;;;5.10;99.90;;;;;;4978290;28;20227;-85
2023/01/10 08:03:43;;;;;;;17.20;4.37;;;5.20;99.90;;;;;;4964356;28;20171;-83
2023/01/10 08:06:10;;;;;;;18.77;4.60;;;5.40;99.90;;;;;;5004278;28;20173;-85
2023/01/10 08:08:37;;;;;;;21.63;5.27;;;5.30;99.90;;;;;;5017693;28;20193;-83
2023/01/10 08:11:06;;;;;;;18.03;4.47;;;5.30;99.90;;;;;;4999503;28;20156;-84
2023/01/10 08:13:39;;;;;;;21.50;5.30;;;5.30;99.90;;;;;;4984891;28;20206;-84
2023/01/10 08:16:05;;;;;;;19.20;4.03;;;5.40;99.90;;;;;;4983680;28;20521;-85
2023/01/10 08:18:31;;;;;;;21.43;4.90;;;5.40;99.90;;;;;;4994588;28;20217;-85
2023/01/10 08:20:58;;;;;;;17.57;4.73;;;5.50;99.90;;;;;;4994646;28;20174;-85
2023/01/10 08:23:24;;;;;;;17.27;4.03;;;5.50;99.90;;;;;;4994395;28;20183;-84
2023/01/10 08:25:50;;;;;;;18.83;4.10;;;5.60;99.90;;;;;;4993696;28;20513;-85
2023/01/10 08:28:16;;;;;;;15.00;4.30;;;5.60;99.90;;;;;;4994838;28;20183;-84
2023/01/10 08:30:42;;;;;;;14.20;4.47;;;5.60;99.90;;;;;;4994325;28;20266;-84
2023/01/10 08:33:09;;;;;;;17.03;4.47;;;5.70;99.90;;;;;;4996408;28;20167;-84
2023/01/10 08:35:42;;;;;;;21.13;4.83;;;5.70;99.90;;;;;;5011184;28;20175;-85
2023/01/10 08:38:09;;;;;;;16.80;4.50;;;5.70;99.90;;;;;;5019043;28;20234;-84
2023/01/10 08:40:35;;;;;;;9.83;3.77;;;5.60;99.90;;;;;;5020412;28;20195;-82
2023/01/10 08:43:10;;;;;;;14.30;4.00;;;5.70;99.90;;;;;;4996693;28;20247;-85
2023/01/10 08:45:37;;;;;;;16.63;4.30;;;5.70;99.90;;;;;;4983108;28;20306;-84
2023/01/10 08:48:21;;;;;;;17.63;4.73;;;5.70;99.90;;;;;;4979280;28;20175;-84
2023/01/10 08:50:49;;;;;;;12.63;4.63;;;5.80;99.90;;;;;;4977207;28;20184;-84
2023/01/10 08:53:16;;;;;;;12.93;4.50;;;5.80;99.90;;;;;;4978100;28;20176;-83
2023/01/10 08:55:41;;;;;;;17.57;4.37;;;5.80;99.90;;;;;;4966702;28;20187;-84
2023/01/10 08:58:08;;;;;;;20.37;5.07;;;5.80;99.90;;;;;;4976014;28;20703;-84
2023/01/10 09:00:34;;;;;;;16.93;4.90;;;6.00;99.90;;;;;;4977426;28;20215;-84
2023/01/10 09:03:00;;;;;;;20.17;4.93;;;5.80;99.40;;;;;;4977144;28;20594;-84
2023/01/10 09:05:25;;;;;;;13.93;4.00;;;5.90;99.50;;;;;;4977319;28;20171;-86
2023/01/10 09:07:51;;;;;;;17.37;4.87;;;6.10;99.40;;;;;;4977049;28;20548;-85
2023/01/10 09:10:17;;;;;;;17.20;4.80;;;6.10;98.90;;;;;;4978524;28;20180;-86
2023/01/10 09:12:55;;;;;;;20.77;5.10;;;6.00;98.60;;;;;;4977769;28;20176;-85
2023/01/10 09:15:22;;;;;;;17.50;5.27;;;6.10;98.60;;;;;;4977562;28;20183;-86
2023/01/10 09:17:54;;;;;;;15.73;4.50;;;6.00;98.70;;;;;;4977336;28;20215;-85
2023/01/10 09:20:20;;;;;;;20.63;4.80;;;6.10;98.40;;;;;;4977447;28;20176;-85
2023/01/10 09:22:45;;;;;;;15.87;4.93;;;6.10;98.50;;;;;;4981289;28;20168;-84
2023/01/10 09:25:11;;;;;;;16.53;5.43;;;6.10;98.50;;;;;;4989990;28;20214;-84
2023/01/10 09:27:37;;;;;;;17.20;5.20;;;6.20;98.50;;;;;;4982573;28;20731;-85
2023/01/10 09:30:06;;;;;;;14.67;4.57;;;6.30;98.60;;;;;;4998384;28;20171;-82
2023/01/10 09:32:33;;;;;;;18.63;5.17;;;6.30;98.20;;;;;;4980016;28;20183;-85
2023/01/10 09:34:59;;;;;;;18.17;5.13;;;6.40;97.90;;;;;;4977423;28;20180;-84
2023/01/10 09:37:25;;;;;;;18.83;5.80;;;6.30;97.50;;;;;;4976867;28;20220;-84
2023/01/10 09:39:51;;;;;;;15.17;4.67;;;6.40;97.00;;;;;;4981359;28;20203;-84
2023/01/10 09:42:27;;;;;;;17.27;5.60;;;6.40;96.60;;;;;;4979378;28;20222;-84
2023/01/10 09:45:05;;;;;;;15.50;5.00;;;6.60;96.50;;;;;;4975655;28;20178;-85
2023/01/10 09:48:00;;;;;;;20.53;4.90;;;6.60;95.80;;;;;;4976213;28;20706;-84
2023/01/10 09:50:35;;;;;;;19.90;6.93;;;6.60;95.50;;;;;;4976971;28;20168;-85
2023/01/10 09:53:12;;;;;;;22.37;5.73;;;6.60;95.00;;;;;;4976746;28;20234;-85
2023/01/10 09:55:39;;;;;;;16.07;4.53;;;6.80;94.60;;;;;;4976477;28;20619;-83
2023/01/10 09:58:18;;;;;;;20.23;5.43;;;6.70;94.30;;;;;;4975940;28;20382;-86
2023/01/10 10:00:47;;;;;;;23.20;5.23;;;6.80;94.10;;;;;;4958956;28;20184;-86
2023/01/10 10:03:40;;;;;;;16.70;4.43;;;6.90;93.60;;;;;;4976546;28;20601;-86
2023/01/10 10:06:10;;;;;;;15.47;5.00;;;7.00;92.50;;;;;;4976135;28;20230;-85
2023/01/10 10:08:36;;;;;;;20.10;4.53;;;7.10;91.10;;;;;;4975823;28;20668;-85
2023/01/10 10:11:30;;;;;;;14.37;4.27;;;6.90;90.50;;;;;;4976571;28;20186;-86
2023/01/10 10:14:23;;;;;;;20.77;4.50;;;7.00;90.40;;;;;;4976023;28;20314;-85
2023/01/10 10:17:07;;;;;;;16.00;4.40;;;7.00;90.20;;;;;;4978182;28;20206;-88
2023/01/10 10:19:48;;;;;;;19.13;5.07;;;7.10;88.90;;;;;;4980688;28;20187;-85
2023/01/10 10:22:32;;;;;;;10.90;4.53;;;7.10;87.80;;;;;;4976204;28;20682;-85
2023/01/10 10:25:00;;;;;;;19.43;5.83;;;7.10;87.60;;;;;;4976730;28;20207;-85
2023/01/10 10:27:50;;;;;;;14.67;4.37;;;7.20;86.90;;;;;;4974738;28;20176;-84
2023/01/10 10:30:50;;;;;;;19.67;4.53;;;7.40;85.20;;;;;;4978357;28;20247;-85
2023/01/10 10:33:23;;;;;;;15.87;4.90;;;7.40;84.60;;;;;;4999173;28;20195;-84
2023/01/10 10:35:55;;;;;;;17.23;4.93;;;7.40;81.30;;;;;;4989536;28;20206;-84
2023/01/10 10:38:30;;;;;;;15.63;4.40;;;7.20;80.80;;;;;;4979535;28;20211;-84
2023/01/10 10:40:58;;;;;;;17.33;5.00;;;7.40;81.70;;;;;;4975457;28;20210;-84
2023/01/10 10:43:30;;;;;;;15.63;5.10;;;7.50;80.00;;;;;;4976018;28;20226;-84
2023/01/10 10:46:16;;;;;;;16.87;4.60;;;7.50;79.70;;;;;;4976832;28;20180;-85
2023/01/10 10:49:28;;;;;;;18.00;4.60;;;7.60;79.00;;;;;;4986452;28;20176;-83
2023/01/10 10:51:54;;;;;;;12.97;4.83;;;7.60;77.20;;;;;;4988191;28;20191;-82
2023/01/10 10:54:21;;;;;;;18.57;4.57;;;7.70;75.60;;;;;;4995597;28;20179;-84
2023/01/10 10:57:03;;;;;;;17.97;4.93;;;7.70;74.80;;;;;;4968856;28;20657;-85
2023/01/10 10:59:29;;;;;;;18.13;5.07;;;7.80;74.30;;;;;;4980778;28;20245;-84
2023/01/10 11:01:59;;;;;;;18.87;6.60;;;7.80;73.10;;;;;;4980314;28;20595;-85
2023/01/10 11:04:25;;;;;;;16.93;6.87;;;7.90;72.20;;;;;;4978832;28;20183;-84
2023/01/10 11:06:55;;;;;;;17.23;4.93;;;8.00;70.30;;;;;;4978499;28;20243;-84
2023/01/10 11:12:00;;;;;;;23.53;5.77;;;8.00;66.40;;;;;;4986801;28;20187;-83
2023/01/10 11:14:47;;;;;;;16.73;3.97;;;8.00;63.80;;;;;;4978139;28;20260;-85
2023/01/10 11:17:25;;;;;;;18.80;4.47;;;8.00;61.40;;;;;;4978571;28;20624;-87
2023/01/10 11:19:56;;;;;;;17.50;4.60;;;8.00;59.00;;;;;;4979545;28;20652;-87
2023/01/10 11:22:23;;;;;;;15.70;4.50;;;8.00;58.60;;;;;;4977365;28;20599;-86
2023/01/10 11:25:02;;;;;;;20.17;4.47;;;8.00;58.00;;;;;;4977071;28;20576;-85
2023/01/10 11:27:31;;;;;;;20.60;4.97;;;8.10;57.90;;;;;;4981608;28;20278;-87
2023/01/10 11:30:08;;;;;;;17.77;4.87;;;8.20;58.00;;;;;;4967146;28;20187;-85
2023/01/10 11:32:38;;;;;;;22.40;5.10;;;8.10;56.30;;;;;;4967725;28;20197;-87
2023/01/10 11:35:14;;;;;;;16.63;4.13;;;8.10;55.90;;;;;;4996866;28;20163;-84
2023/01/10 11:37:41;;;;;;;13.57;4.57;;;8.20;56.90;;;;;;4984978;28;20199;-86
2023/01/10 11:40:33;;;;;;;14.23;4.53;;;8.10;57.60;;;;;;4961707;28;20176;-84
2023/01/10 11:43:22;;;;;;;19.83;5.13;;;8.30;57.40;;;;;;4981705;28;20176;-83
2023/01/10 11:46:27;;;;;;;21.27;4.47;;;8.20;57.20;;;;;;4987981;28;20259;-87
2023/01/10 11:49:05;;;;;;;11.97;4.17;;;8.30;57.40;;;;;;4981470;28;20652;-85
2023/01/10 11:51:36;;;;;;;13.27;4.13;;;8.30;56.70;;;;;;4997671;28;20183;-85
2023/01/10 11:54:10;;;;;;;17.10;4.87;;;8.50;56.40;;;;;;4991576;28;20210;-86
2023/01/10 11:57:32;;;;;;;13.47;4.60;;;8.40;56.80;;;;;;4982685;28;20243;-87
2023/01/10 12:00:09;;;;;;;16.77;4.00;;;8.40;54.50;;;;;;4978198;28;20194;-86
2023/01/10 12:02:47;;;;;;;13.47;4.20;;;8.40;54.00;;;;;;4992040;28;20230;-86
2023/01/10 12:05:19;;;;;;;16.30;4.60;;;8.50;55.30;;;;;;4985072;28;20628;-86
2023/01/10 12:08:05;;;;;;;21.27;4.80;;;8.50;53.40;;;;;;4984802;28;20172;-86
2023/01/10 12:10:31;;;;;;;16.27;3.80;;;8.40;53.00;;;;;;4982881;28;20187;-86
2023/01/10 12:13:15;;;;;;;15.03;3.60;;;8.50;53.20;;;;;;4977345;28;20184;-87
2023/01/10 12:15:43;;;;;;;14.97;4.27;;;8.40;55.30;;;;;;4977318;28;20176;-88
2023/01/10 12:18:11;;;;;;;14.17;4.23;;;8.40;59.70;;;;;;4964641;28;20387;-86
2023/01/10 12:20:50;;;;;;;18.20;4.43;;;8.40;62.60;;;;;;4990757;28;20187;-87
2023/01/10 12:23:21;;;;;;;12.30;3.73;;;8.40;65.40;;;;;;4997352;28;20674;-86
2023/01/10 12:25:47;;;;;;;15.03;3.97;;;8.40;67.40;;;;;;4996602;28;20167;-86
2023/01/10 12:28:19;;;;;;;12.60;4.77;;;8.30;69.80;;;;;;4992838;28;20296;-85
2023/01/10 12:30:49;;;;;;;17.10;3.67;;;8.30;72.10;;;;;;4994288;28;20189;-85
2023/01/10 12:33:29;;;;;;;16.20;4.00;;;8.40;75.00;;;;;;4984067;28;20183;-87
2023/01/10 12:36:04;;;;;;;18.60;4.30;;;8.30;76.50;;;;;;4996966;28;20277;-88
2023/01/10 12:44:36;;;;;;;16.60;4.23;;;8.20;81.60;;;;;;5010555;28;20185;-87
2023/01/10 12:47:17;;;;;;;13.20;4.67;;;8.20;84.90;;;;;;5005166;28;20259;-87
2023/01/10 12:53:30;;;;;;;15.17;3.83;;;8.10;88.60;;;;;;5011360;28;20170;-85
2023/01/10 12:55:59;;;;;;;12.73;3.90;;;8.10;90.30;;;;;;5015214;28;20175;-86
2023/01/10 12:58:54;;;;;;;18.03;3.90;;;8.00;91.60;;;;;;5013669;28;20223;-85
2023/01/10 13:01:33;;;;;;;12.53;4.17;;;8.00;92.90;;;;;;5002342;28;20206;-86
2023/01/10 13:04:28;;;;;;;17.10;4.17;;;8.00;93.40;;;;;;4991898;28;20619;-87
2023/01/10 13:06:55;;;;;;;14.47;3.80;;;8.00;93.80;;;;;;4993689;28;20186;-88
2023/01/10 13:09:26;;;;;;;14.63;3.77;;;8.00;94.90;;;;;;4996331;28;20179;-86
2023/01/10 13:12:04;;;;;;;11.80;3.37;;;8.00;95.70;;;;;;4990160;28;20238;-87
2023/01/10 13:14:45;;;;;;;15.20;3.23;;;7.90;95.40;;;;;;4993026;28;20175;-83
2023/01/10 13:17:41;;;;;;;15.90;3.83;;;8.00;96.10;;;;;;4973598;28;20199;-84
2023/01/10 13:20:16;;;;;;;10.90;3.50;;;8.10;96.70;;;;;;4981108;28;20192;-85
2023/01/10 13:22:54;;;;;;;10.93;3.63;;;8.00;95.00;;;;;;4997894;28;20172;-85
2023/01/10 13:25:34;;;;;;;12.23;3.97;;;7.90;96.30;;;;;;4971696;28;20187;-85
2023/01/10 13:28:19;;;;;;;13.60;3.50;;;7.90;96.70;;;;;;4968663;28;20176;-86
2023/01/10 13:30:54;;;;;;;11.47;3.90;;;7.90;97.10;;;;;;4961083;28;20168;-86
2023/01/10 13:33:25;;;;;;;14.70;3.57;;;7.90;97.50;;;;;;4976329;28;20175;-86
2023/01/10 13:35:54;;;;;;;11.20;3.37;;;7.90;98.00;;;;;;4979489;28;20255;-87
2023/01/10 13:38:34;;;;;;;16.23;3.40;;;7.90;98.30;;;;;;4982740;28;20218;-87
2023/01/10 13:41:00;;;;;;;13.63;2.80;;;7.80;98.50;;;;;;4985484;28;20257;-85
2023/01/10 13:43:35;;;;;;;15.30;4.17;;;7.90;99.40;;;;;;4984073;28;20636;-86